Time;durP1;ratioP1;P1;durP2;ratioP2;P2;SDS_P1;SDS_P2;PMS_P1;PMS_P2;Temp;Humidity;BMP_temperature;BMP_pressure;BME280_temperature;BME280_humidity;BME280_pressure;Samples;Min_cycle;Max_cycle;Signal;HPM_P1;HPM_P2
2023/05/22 00:01:50;;;;;;;12.77;8.02;;;;;;;;;;5014122;28;20033;-71
2023/05/22 00:04:35;;;;;;;13.43;8.70;;;;;;;;;;5015482;28;20021;-70
2023/05/22 00:07:22;;;;;;;13.35;8.30;;;;;;;;;;5015099;28;20025;-71
2023/05/22 00:10:07;;;;;;;11.52;8.63;;;;;;;;;;5001295;28;20416;-69
2023/05/22 00:12:52;;;;;;;13.30;8.23;;;;;;;;;;5015374;28;20149;-67
2023/05/22 00:15:37;;;;;;;11.55;8.15;;;;;;;;;;5015540;28;20029;-66
2023/05/22 00:18:24;;;;;;;12.68;8.88;;;;;;;;;;5015120;28;20041;-68
2023/05/22 00:21:09;;;;;;;12.70;9.25;;;;;;;;;;5014943;28;20535;-66
2023/05/22 00:23:55;;;;;;;13.38;9.10;;;;;;;;;;5015445;28;20431;-67
2023/05/22 00:26:40;;;;;;;14.15;9.02;;;;;;;;;;5015404;28;20564;-67
2023/05/22 00:29:25;;;;;;;11.10;8.48;;;;;;;;;;5013917;28;20029;-67
2023/05/22 00:32:10;;;;;;;11.70;8.13;;;;;;;;;;5014249;28;20523;-66
2023/05/22 00:34:55;;;;;;;13.63;9.48;;;;;;;;;;5014579;28;20033;-66
2023/05/22 00:37:41;;;;;;;11.70;8.60;;;;;;;;;;5014050;28;20491;-66
2023/05/22 00:40:26;;;;;;;16.08;9.23;;;;;;;;;;5014116;28;20033;-65
2023/05/22 00:43:12;;;;;;;12.63;7.88;;;;;;;;;;5013865;28;20021;-66
2023/05/22 00:45:57;;;;;;;12.05;8.07;;;;;;;;;;5014201;28;20368;-73
2023/05/22 00:48:42;;;;;;;11.15;8.73;;;;;;;;;;5013830;28;20037;-66
2023/05/22 00:51:27;;;;;;;12.73;9.57;;;;;;;;;;5004187;28;20744;-77
2023/05/22 00:54:13;;;;;;;11.40;8.30;;;;;;;;;;5014047;28;20025;-77
2023/05/22 00:57:00;;;;;;;12.68;8.40;;;;;;;;;;5011479;28;20025;-76
2023/05/22 00:59:45;;;;;;;12.10;9.10;;;;;;;;;;5010652;28;20033;-78
2023/05/22 01:02:31;;;;;;;11.07;7.88;;;;;;;;;;5013958;28;20399;-77
2023/05/22 01:05:17;;;;;;;14.40;9.15;;;;;;;;;;5014037;28;20076;-78
2023/05/22 01:08:03;;;;;;;11.35;8.60;;;;;;;;;;5007810;28;20029;-69
2023/05/22 01:10:55;;;;;;;13.25;9.60;;;;;;;;;;5013670;28;20029;-68
2023/05/22 01:14:01;;;;;;;11.38;8.20;;;;;;;;;;5013612;28;20096;-68
2023/05/22 01:17:09;;;;;;;12.40;7.97;;;;;;;;;;5013719;28;20288;-67
2023/05/22 01:20:20;;;;;;;14.07;8.55;;;;;;;;;;5012495;28;20029;-70
2023/05/22 01:23:15;;;;;;;13.93;9.23;;;;;;;;;;5002965;28;20026;-64
2023/05/22 01:26:19;;;;;;;14.40;10.55;;;;;;;;;;5027196;28;20032;-70
2023/05/22 01:29:13;;;;;;;13.70;9.27;;;;;;;;;;4999967;28;20022;-68
2023/05/22 01:31:59;;;;;;;12.38;9.10;;;;;;;;;;4975853;28;1092678;-68
2023/05/22 01:34:46;;;;;;;12.85;8.50;;;;;;;;;;5014351;28;20632;-67
2023/05/22 01:37:31;;;;;;;14.32;10.23;;;;;;;;;;5014171;28;20021;-68
2023/05/22 01:40:17;;;;;;;13.43;8.43;;;;;;;;;;5014170;28;20090;-67
2023/05/22 01:43:02;;;;;;;13.05;10.13;;;;;;;;;;5014159;28;20025;-68
2023/05/22 01:45:47;;;;;;;12.27;8.82;;;;;;;;;;5016904;28;20036;-66
2023/05/22 01:48:34;;;;;;;13.30;9.35;;;;;;;;;;5018380;28;20737;-65
2023/05/22 01:51:26;;;;;;;13.48;10.10;;;;;;;;;;5017196;28;20087;-64
2023/05/22 01:54:22;;;;;;;12.43;9.05;;;;;;;;;;5017884;28;20134;-65
2023/05/22 01:57:11;;;;;;;13.70;9.93;;;;;;;;;;5017879;28;20064;-65
2023/05/22 02:00:08;;;;;;;14.00;8.75;;;;;;;;;;5017498;28;20097;-68
2023/05/22 02:02:59;;;;;;;12.55;9.05;;;;;;;;;;5017880;28;20080;-71
2023/05/22 02:05:45;;;;;;;14.63;10.45;;;;;;;;;;5017689;28;20038;-72
2023/05/22 02:08:31;;;;;;;15.45;10.27;;;;;;;;;;5017227;28;20469;-71
2023/05/22 02:11:16;;;;;;;11.68;8.13;;;;;;;;;;5004162;28;20030;-70
2023/05/22 02:14:02;;;;;;;12.63;9.43;;;;;;;;;;5017703;28;20025;-71
2023/05/22 02:16:47;;;;;;;15.07;8.20;;;;;;;;;;5017147;28;20017;-70
2023/05/22 02:19:33;;;;;;;12.93;9.20;;;;;;;;;;5003980;28;20418;-66
2023/05/22 02:22:18;;;;;;;13.93;10.45;;;;;;;;;;5017115;28;20098;-70
2023/05/22 02:25:07;;;;;;;16.60;9.88;;;;;;;;;;5017559;28;20068;-71
2023/05/22 02:27:53;;;;;;;10.48;7.80;;;;;;;;;;5017059;28;20507;-71
2023/05/22 02:30:38;;;;;;;15.02;9.23;;;;;;;;;;5003329;28;20118;-72
2023/05/22 02:33:23;;;;;;;12.05;8.23;;;;;;;;;;4997134;28;20042;-72
2023/05/22 02:36:09;;;;;;;12.55;8.45;;;;;;;;;;5011150;28;20381;-70
2023/05/22 02:38:54;;;;;;;12.73;8.45;;;;;;;;;;5011061;28;20100;-67
2023/05/22 02:41:40;;;;;;;13.05;9.18;;;;;;;;;;5010683;28;20030;-73
2023/05/22 02:44:25;;;;;;;13.70;8.95;;;;;;;;;;5000799;28;20031;-74
2023/05/22 02:47:10;;;;;;;13.43;9.65;;;;;;;;;;5002313;28;20477;-72
2023/05/22 02:49:56;;;;;;;12.65;9.32;;;;;;;;;;4996010;28;20045;-73
2023/05/22 02:52:44;;;;;;;12.52;8.90;;;;;;;;;;4996115;28;20018;-73
2023/05/22 02:55:29;;;;;;;11.63;8.82;;;;;;;;;;4997402;28;20018;-67
2023/05/22 02:58:14;;;;;;;13.07;9.70;;;;;;;;;;5002726;28;20030;-69
2023/05/22 03:00:59;;;;;;;14.13;9.90;;;;;;;;;;4995158;28;20104;-69
2023/05/22 03:03:47;;;;;;;12.55;9.10;;;;;;;;;;4999181;28;20022;-69
2023/05/22 03:06:33;;;;;;;15.27;9.80;;;;;;;;;;5010223;28;20030;-70
2023/05/22 03:09:19;;;;;;;14.93;9.65;;;;;;;;;;4996840;28;20213;-68
2023/05/22 03:12:04;;;;;;;13.98;10.00;;;;;;;;;;5010610;28;20188;-69
2023/05/22 03:14:49;;;;;;;13.73;10.23;;;;;;;;;;5010493;28;20389;-65
2023/05/22 03:17:35;;;;;;;12.57;9.50;;;;;;;;;;4991675;28;20033;-77
2023/05/22 03:20:20;;;;;;;14.20;10.05;;;;;;;;;;5010029;28;20108;-76
2023/05/22 03:23:05;;;;;;;13.30;8.77;;;;;;;;;;5010093;28;20532;-75
2023/05/22 03:25:51;;;;;;;13.30;8.52;;;;;;;;;;4996185;28;20033;-79
2023/05/22 03:28:36;;;;;;;13.52;10.05;;;;;;;;;;5004458;28;20037;-76
2023/05/22 03:31:23;;;;;;;12.60;9.23;;;;;;;;;;5002375;28;20033;-65
2023/05/22 03:34:08;;;;;;;13.00;10.27;;;;;;;;;;4990519;28;20041;-69
2023/05/22 03:36:53;;;;;;;15.93;10.55;;;;;;;;;;4990351;28;20359;-74
2023/05/22 03:39:38;;;;;;;13.80;9.57;;;;;;;;;;4990559;28;20117;-71
2023/05/22 03:42:24;;;;;;;12.27;8.68;;;;;;;;;;5003612;28;20030;-73
2023/05/22 03:45:09;;;;;;;13.43;10.10;;;;;;;;;;4990407;28;20026;-71
2023/05/22 03:47:54;;;;;;;18.60;11.50;;;;;;;;;;4990173;28;20050;-72
2023/05/22 03:50:40;;;;;;;13.95;10.75;;;;;;;;;;4990034;28;20038;-67
2023/05/22 03:53:25;;;;;;;13.32;8.95;;;;;;;;;;4989748;28;20477;-74
2023/05/22 03:56:10;;;;;;;13.35;9.43;;;;;;;;;;5003671;28;20033;-73
2023/05/22 03:58:55;;;;;;;15.60;10.48;;;;;;;;;;4998123;28;20488;-73
2023/05/22 04:01:41;;;;;;;11.95;8.68;;;;;;;;;;4989434;28;20033;-73
2023/05/22 04:04:26;;;;;;;15.43;10.50;;;;;;;;;;5003707;28;20022;-75
2023/05/22 04:07:12;;;;;;;13.73;9.98;;;;;;;;;;4989544;28;20034;-72
2023/05/22 04:09:57;;;;;;;16.38;10.80;;;;;;;;;;4989915;28;20030;-73
2023/05/22 04:12:42;;;;;;;14.23;9.38;;;;;;;;;;4989545;28;20028;-73
2023/05/22 04:15:27;;;;;;;15.32;9.95;;;;;;;;;;4989834;28;20103;-72
2023/05/22 04:18:13;;;;;;;11.90;8.98;;;;;;;;;;5003413;28;20044;-72
2023/05/22 04:20:58;;;;;;;12.20;8.75;;;;;;;;;;5003418;28;20042;-72
2023/05/22 04:23:44;;;;;;;15.15;9.35;;;;;;;;;;4989397;28;20014;-73
2023/05/22 04:26:30;;;;;;;13.77;9.70;;;;;;;;;;4983577;28;20034;-71
2023/05/22 04:29:16;;;;;;;13.27;9.57;;;;;;;;;;4978544;28;20149;-78
2023/05/22 04:32:01;;;;;;;13.77;9.48;;;;;;;;;;4985017;28;20049;-69
2023/05/22 04:34:47;;;;;;;18.70;9.90;;;;;;;;;;5014712;28;20075;-70
2023/05/22 04:37:32;;;;;;;15.20;8.98;;;;;;;;;;5014472;28;20018;-67
2023/05/22 04:40:17;;;;;;;15.32;9.60;;;;;;;;;;5014559;28;20107;-68
2023/05/22 04:43:03;;;;;;;15.48;10.10;;;;;;;;;;5014477;28;20037;-70
2023/05/22 04:45:48;;;;;;;15.63;9.73;;;;;;;;;;5000941;28;20033;-69
2023/05/22 04:48:35;;;;;;;12.45;9.30;;;;;;;;;;5014924;28;20029;-73
2023/05/22 04:51:21;;;;;;;12.77;9.23;;;;;;;;;;5003104;28;20631;-72
2023/05/22 04:54:07;;;;;;;14.30;8.68;;;;;;;;;;5014556;28;20025;-71
2023/05/22 04:56:52;;;;;;;16.38;9.65;;;;;;;;;;5014742;28;20515;-71
2023/05/22 04:59:37;;;;;;;18.30;9.63;;;;;;;;;;5014611;28;20021;-71
2023/05/22 05:02:22;;;;;;;13.98;9.20;;;;;;;;;;5014377;28;20049;-73
2023/05/22 05:05:08;;;;;;;15.13;11.60;;;;;;;;;;5014667;28;20077;-66
2023/05/22 05:07:53;;;;;;;13.10;9.75;;;;;;;;;;5014417;28;20034;-65
2023/05/22 05:10:38;;;;;;;12.52;9.30;;;;;;;;;;5014581;28;20026;-64
2023/05/22 05:13:23;;;;;;;15.90;10.63;;;;;;;;;;5014400;28;20104;-64
2023/05/22 05:16:09;;;;;;;15.85;10.15;;;;;;;;;;5014678;28;20143;-64
2023/05/22 05:18:55;;;;;;;13.10;9.77;;;;;;;;;;5000943;28;20516;-63
2023/05/22 05:21:40;;;;;;;13.95;10.07;;;;;;;;;;5004861;28;20608;-66
2023/05/22 05:24:26;;;;;;;14.20;9.82;;;;;;;;;;5018341;28;20018;-70
2023/05/22 05:27:11;;;;;;;12.93;9.95;;;;;;;;;;5004670;28;20461;-70
2023/05/22 05:29:56;;;;;;;15.20;9.35;;;;;;;;;;5018163;28;20056;-70
2023/05/22 05:32:41;;;;;;;14.27;9.80;;;;;;;;;;5018200;28;20042;-68
2023/05/22 05:35:27;;;;;;;13.90;10.45;;;;;;;;;;5019129;28;20025;-69
2023/05/22 05:38:12;;;;;;;13.05;8.95;;;;;;;;;;5010401;28;20161;-69
2023/05/22 05:40:57;;;;;;;12.95;9.30;;;;;;;;;;5018254;28;20509;-66
2023/05/22 05:43:42;;;;;;;12.32;9.10;;;;;;;;;;5017738;28;20084;-70
2023/05/22 05:46:27;;;;;;;16.00;10.50;;;;;;;;;;5018134;28;20399;-67
2023/05/22 05:49:13;;;;;;;12.57;8.65;;;;;;;;;;5017686;28;20032;-67
2023/05/22 05:51:58;;;;;;;20.77;10.30;;;;;;;;;;5017807;28;20029;-67
2023/05/22 05:54:46;;;;;;;13.75;9.60;;;;;;;;;;5018179;28;20079;-67
2023/05/22 05:57:31;;;;;;;14.65;10.77;;;;;;;;;;5018351;28;20022;-68
2023/05/22 06:00:17;;;;;;;13.18;9.88;;;;;;;;;;5017834;28;20524;-65
2023/05/22 06:03:02;;;;;;;15.52;10.23;;;;;;;;;;5018155;28;20087;-66
2023/05/22 06:05:48;;;;;;;13.27;9.43;;;;;;;;;;5018103;28;20033;-66
2023/05/22 06:08:33;;;;;;;13.52;10.30;;;;;;;;;;5018346;28;20063;-67
2023/05/22 06:11:19;;;;;;;12.00;8.77;;;;;;;;;;5018007;28;20025;-66
2023/05/22 06:14:07;;;;;;;13.68;8.85;;;;;;;;;;5017684;28;20104;-66
2023/05/22 06:16:52;;;;;;;12.90;8.15;;;;;;;;;;5004167;28;20021;-72
2023/05/22 06:19:37;;;;;;;12.38;9.10;;;;;;;;;;5018016;28;20514;-72
2023/05/22 06:22:26;;;;;;;11.50;8.35;;;;;;;;;;5017616;28;20044;-67
2023/05/22 06:25:11;;;;;;;10.73;7.50;;;;;;;;;;5017809;28;20112;-66
2023/05/22 06:27:56;;;;;;;13.40;9.55;;;;;;;;;;5004222;28;20044;-67
2023/05/22 06:30:42;;;;;;;12.18;8.02;;;;;;;;;;5016849;28;20464;-68
2023/05/22 06:33:27;;;;;;;10.55;7.22;;;;;;;;;;5017300;28;20053;-67
2023/05/22 06:36:12;;;;;;;10.40;7.78;;;;;;;;;;5017686;28;20030;-65
2023/05/22 06:38:57;;;;;;;12.05;8.55;;;;;;;;;;5016598;28;20518;-70
2023/05/22 06:41:43;;;;;;;10.82;7.85;;;;;;;;;;5016923;28;20120;-69
2023/05/22 06:44:28;;;;;;;14.88;10.45;;;;;;;;;;5017544;28;20121;-69
2023/05/22 06:47:14;;;;;;;12.35;9.48;;;;;;;;;;5016944;28;20091;-69
2023/05/22 06:49:59;;;;;;;14.60;9.95;;;;;;;;;;5017170;28;20030;-72
2023/05/22 06:52:44;;;;;;;14.07;8.88;;;;;;;;;;5016936;28;20021;-72
2023/05/22 06:55:29;;;;;;;12.57;7.95;;;;;;;;;;5016903;28;20124;-78
2023/05/22 06:58:15;;;;;;;15.65;9.95;;;;;;;;;;5016873;28;20404;-68
2023/05/22 07:01:00;;;;;;;11.13;8.65;;;;;;;;;;5016374;28;20041;-70
2023/05/22 07:03:45;;;;;;;11.75;9.20;;;;;;;;;;5016955;28;20437;-67
2023/05/22 07:06:32;;;;;;;16.88;10.60;;;;;;;;;;5016928;28;20057;-69
2023/05/22 07:09:18;;;;;;;20.20;10.88;;;;;;;;;;5016582;28;20045;-68
2023/05/22 07:12:04;;;;;;;15.32;11.65;;;;;;;;;;5002941;28;20029;-68
2023/05/22 07:14:49;;;;;;;13.52;10.38;;;;;;;;;;5016473;28;20064;-66
2023/05/22 07:17:34;;;;;;;15.05;11.27;;;;;;;;;;4993798;28;20068;-66
2023/05/22 07:20:20;;;;;;;15.75;9.75;;;;;;;;;;5016865;28;20122;-65
2023/05/22 07:23:06;;;;;;;14.40;9.38;;;;;;;;;;5016227;28;20554;-66
2023/05/22 07:25:51;;;;;;;14.23;10.00;;;;;;;;;;5016587;28;20064;-69
2023/05/22 07:28:37;;;;;;;12.80;8.10;;;;;;;;;;5013054;28;20017;-69
2023/05/22 07:31:22;;;;;;;12.57;9.85;;;;;;;;;;5016372;28;20057;-68
2023/05/22 07:34:08;;;;;;;11.32;9.40;;;;;;;;;;5002999;28;20401;-69
2023/05/22 07:36:53;;;;;;;13.50;10.23;;;;;;;;;;5013231;28;20022;-69
2023/05/22 07:39:38;;;;;;;11.98;8.95;;;;;;;;;;5015933;28;20053;-69
2023/05/22 07:42:24;;;;;;;13.23;9.43;;;;;;;;;;5014694;28;20072;-68
2023/05/22 07:45:10;;;;;;;11.45;8.77;;;;;;;;;;5016266;28;20099;-68
2023/05/22 07:47:57;;;;;;;12.43;8.85;;;;;;;;;;5016186;28;20137;-70
2023/05/22 07:50:44;;;;;;;12.30;9.52;;;;;;;;;;5015074;28;20033;-69
2023/05/22 07:53:30;;;;;;;11.45;8.82;;;;;;;;;;5016022;28;20028;-67
2023/05/22 07:56:16;;;;;;;9.60;7.65;;;;;;;;;;4989283;28;20025;-67
2023/05/22 07:59:02;;;;;;;14.88;9.82;;;;;;;;;;5015425;28;20434;-67
2023/05/22 08:01:47;;;;;;;11.80;9.48;;;;;;;;;;5015095;28;20036;-69
2023/05/22 08:04:32;;;;;;;11.20;8.77;;;;;;;;;;5015743;28;20029;-69
2023/05/22 08:07:17;;;;;;;11.38;8.15;;;;;;;;;;5015253;28;20075;-70
2023/05/22 08:10:12;;;;;;;11.10;8.13;;;;;;;;;;5015726;28;20040;-69
2023/05/22 08:13:01;;;;;;;10.48;8.63;;;;;;;;;;5015248;28;20076;-75
2023/05/22 08:15:46;;;;;;;12.60;8.30;;;;;;;;;;5015714;28;20025;-73
2023/05/22 08:18:31;;;;;;;11.50;8.82;;;;;;;;;;5015673;28;20032;-73
2023/05/22 08:21:17;;;;;;;11.63;7.82;;;;;;;;;;5015463;28;20029;-75
2023/05/22 08:24:02;;;;;;;15.85;8.65;;;;;;;;;;5015466;28;20483;-74
2023/05/22 08:26:47;;;;;;;13.73;8.45;;;;;;;;;;5011236;28;20061;-77
2023/05/22 08:29:33;;;;;;;11.05;8.45;;;;;;;;;;5015029;28;20057;-73
2023/05/22 08:32:18;;;;;;;10.85;8.52;;;;;;;;;;5008955;28;20081;-72
2023/05/22 08:35:03;;;;;;;12.77;8.02;;;;;;;;;;5008576;28;20029;-74
2023/05/22 08:37:49;;;;;;;12.70;8.63;;;;;;;;;;4995299;28;20057;-73
2023/05/22 08:40:38;;;;;;;11.00;8.00;;;;;;;;;;5009065;28;20104;-74
2023/05/22 08:43:23;;;;;;;13.35;8.25;;;;;;;;;;5008819;28;20070;-73
2023/05/22 08:46:09;;;;;;;11.32;8.30;;;;;;;;;;4995581;28;20025;-68
2023/05/22 08:48:55;;;;;;;14.85;8.32;;;;;;;;;;5008888;28;20037;-68
2023/05/22 08:51:41;;;;;;;12.30;8.45;;;;;;;;;;4995660;28;20026;-67
2023/05/22 08:54:27;;;;;;;14.02;8.82;;;;;;;;;;5008720;28;20495;-68
2023/05/22 08:57:12;;;;;;;18.35;9.75;;;;;;;;;;5008527;28;20137;-67
2023/05/22 08:59:58;;;;;;;15.02;8.85;;;;;;;;;;5008334;28;20068;-67
2023/05/22 09:02:43;;;;;;;10.85;7.80;;;;;;;;;;5008726;28;20041;-65
2023/05/22 09:05:29;;;;;;;12.27;8.02;;;;;;;;;;5009503;28;20053;-68
2023/05/22 09:08:15;;;;;;;10.38;7.95;;;;;;;;;;5008749;28;20029;-72
2023/05/22 09:11:00;;;;;;;14.93;9.07;;;;;;;;;;5008933;28;20033;-70
2023/05/22 09:13:45;;;;;;;11.32;8.35;;;;;;;;;;5008767;28;20029;-70
2023/05/22 09:16:30;;;;;;;13.60;8.13;;;;;;;;;;5008702;28;20041;-70
2023/05/22 09:19:15;;;;;;;12.52;8.23;;;;;;;;;;5008820;28;20029;-71
2023/05/22 09:22:03;;;;;;;10.73;7.63;;;;;;;;;;5007844;28;20061;-69
2023/05/22 09:24:48;;;;;;;14.27;8.38;;;;;;;;;;4989131;28;20034;-77
2023/05/22 09:27:33;;;;;;;11.35;8.18;;;;;;;;;;5002467;28;20037;-77
2023/05/22 09:30:18;;;;;;;11.60;7.88;;;;;;;;;;5008609;28;20022;-77
2023/05/22 09:33:07;;;;;;;10.50;8.48;;;;;;;;;;5000201;28;20041;-77
2023/05/22 09:35:53;;;;;;;11.48;8.52;;;;;;;;;;5005057;28;20033;-78
2023/05/22 09:38:38;;;;;;;10.48;7.70;;;;;;;;;;4995246;28;20041;-77
2023/05/22 09:41:24;;;;;;;11.75;8.15;;;;;;;;;;5008534;28;20046;-76
2023/05/22 09:44:13;;;;;;;14.35;8.65;;;;;;;;;;5008183;28;20037;-65
2023/05/22 09:46:58;;;;;;;13.93;9.27;;;;;;;;;;5008053;28;20087;-65
2023/05/22 09:49:44;;;;;;;13.98;7.68;;;;;;;;;;5007943;28;20026;-65
2023/05/22 09:52:32;;;;;;;15.10;10.27;;;;;;;;;;5007862;28;20381;-65
2023/05/22 09:55:22;;;;;;;11.32;7.97;;;;;;;;;;5007910;28;20030;-65
2023/05/22 09:58:09;;;;;;;14.48;8.75;;;;;;;;;;5008041;28;20098;-67
2023/05/22 10:00:55;;;;;;;11.57;8.60;;;;;;;;;;5007712;28;20026;-68
2023/05/22 10:03:41;;;;;;;12.43;8.50;;;;;;;;;;5008188;28;20041;-68
2023/05/22 10:06:27;;;;;;;14.02;9.55;;;;;;;;;;5009812;28;20030;-68
2023/05/22 10:09:15;;;;;;;12.23;8.38;;;;;;;;;;5011612;28;20045;-68
2023/05/22 10:12:03;;;;;;;16.40;9.63;;;;;;;;;;5011529;28;20091;-69
2023/05/22 10:14:48;;;;;;;15.82;9.52;;;;;;;;;;5011450;28;20389;-70
2023/05/22 10:17:34;;;;;;;11.07;8.48;;;;;;;;;;4988348;28;20029;-70
2023/05/22 10:20:20;;;;;;;13.05;9.07;;;;;;;;;;5024694;22;20428;-71
2023/05/22 10:23:06;;;;;;;13.15;9.25;;;;;;;;;;5011261;28;20103;-71
2023/05/22 10:25:52;;;;;;;12.75;8.70;;;;;;;;;;5010637;28;20516;-71
2023/05/22 10:28:40;;;;;;;14.73;9.13;;;;;;;;;;4996911;28;20076;-71
2023/05/22 10:31:28;;;;;;;12.77;8.73;;;;;;;;;;5010491;28;20029;-71
2023/05/22 10:34:23;;;;;;;10.68;8.75;;;;;;;;;;4998213;28;20030;-71
2023/05/22 10:37:23;;;;;;;13.43;9.18;;;;;;;;;;5010709;28;20336;-71
2023/05/22 10:40:13;;;;;;;12.98;7.90;;;;;;;;;;5010939;28;20033;-74
2023/05/22 10:42:59;;;;;;;13.20;8.13;;;;;;;;;;5010809;28;20041;-72
2023/05/22 10:45:45;;;;;;;14.60;8.25;;;;;;;;;;5010580;28;20026;-72
2023/05/22 10:48:44;;;;;;;15.60;9.90;;;;;;;;;;5010709;28;20026;-75
2023/05/22 10:51:31;;;;;;;12.93;8.40;;;;;;;;;;4980540;28;20029;-72
2023/05/22 10:54:16;;;;;;;13.10;8.15;;;;;;;;;;4990252;28;20037;-67
2023/05/22 10:57:17;;;;;;;10.88;8.10;;;;;;;;;;5003990;28;20034;-69
2023/05/22 11:00:10;;;;;;;14.55;10.05;;;;;;;;;;4996621;28;20497;-71
2023/05/22 11:03:02;;;;;;;11.57;8.25;;;;;;;;;;4994468;28;20105;-70
2023/05/22 11:05:51;;;;;;;10.82;8.43;;;;;;;;;;4991049;28;20030;-70
2023/05/22 11:08:37;;;;;;;12.93;9.23;;;;;;;;;;4990943;28;20061;-69
2023/05/22 11:11:25;;;;;;;14.45;9.25;;;;;;;;;;4990633;28;20706;-67
2023/05/22 11:14:19;;;;;;;12.15;9.60;;;;;;;;;;4990600;28;20022;-73
2023/05/22 11:17:04;;;;;;;11.90;8.75;;;;;;;;;;4998878;28;20027;-72
2023/05/22 11:19:58;;;;;;;14.23;9.43;;;;;;;;;;4994083;28;20046;-73
2023/05/22 11:22:48;;;;;;;11.25;8.48;;;;;;;;;;4996001;28;20038;-73
2023/05/22 11:25:35;;;;;;;11.55;8.93;;;;;;;;;;4996153;28;20100;-73
2023/05/22 11:28:21;;;;;;;10.77;8.77;;;;;;;;;;4992522;28;20033;-73
2023/05/22 11:31:06;;;;;;;13.30;9.35;;;;;;;;;;4996431;28;20026;-70
2023/05/22 11:33:52;;;;;;;12.43;9.05;;;;;;;;;;4996409;28;20040;-71
2023/05/22 11:36:37;;;;;;;13.35;9.23;;;;;;;;;;4996016;28;20448;-69
2023/05/22 11:39:23;;;;;;;12.70;8.60;;;;;;;;;;4996245;28;20037;-70
2023/05/22 11:42:08;;;;;;;12.23;7.97;;;;;;;;;;4996043;28;20046;-69
2023/05/22 11:44:54;;;;;;;13.55;7.88;;;;;;;;;;4996234;28;20381;-69
2023/05/22 11:47:39;;;;;;;13.20;7.70;;;;;;;;;;4995965;28;20070;-69
2023/05/22 11:50:25;;;;;;;17.60;8.27;;;;;;;;;;4995239;28;20488;-76
2023/05/22 11:53:10;;;;;;;11.32;7.97;;;;;;;;;;4995871;28;20310;-76
2023/05/22 11:56:06;;;;;;;11.23;8.15;;;;;;;;;;4995907;28;20026;-76
2023/05/22 11:58:51;;;;;;;11.77;7.90;;;;;;;;;;4995421;28;20038;-77
2023/05/22 12:01:36;;;;;;;11.40;7.90;;;;;;;;;;5008953;28;20490;-76
2023/05/22 12:04:21;;;;;;;10.38;7.90;;;;;;;;;;4995724;28;20030;-76
2023/05/22 12:07:07;;;;;;;13.20;7.50;;;;;;;;;;4995410;28;20072;-67
2023/05/22 12:09:55;;;;;;;9.80;7.35;;;;;;;;;;4994007;28;20489;-76
2023/05/22 12:12:41;;;;;;;9.45;7.43;;;;;;;;;;4995517;28;20128;-76
2023/05/22 12:15:26;;;;;;;10.52;7.85;;;;;;;;;;4995557;28;20037;-78
2023/05/22 12:18:11;;;;;;;13.45;8.35;;;;;;;;;;4994833;28;20022;-77
2023/05/22 12:20:56;;;;;;;12.02;8.15;;;;;;;;;;4992482;28;20076;-76
2023/05/22 12:23:51;;;;;;;12.27;7.85;;;;;;;;;;4993271;28;20067;-77
2023/05/22 12:26:36;;;;;;;13.38;8.48;;;;;;;;;;4988766;28;20033;-71
2023/05/22 12:29:22;;;;;;;10.00;7.97;;;;;;;;;;4994950;28;20045;-68
2023/05/22 12:32:09;;;;;;;12.57;8.93;;;;;;;;;;4995058;28;20056;-68
2023/05/22 12:34:56;;;;;;;9.80;7.78;;;;;;;;;;4995536;28;20030;-67
2023/05/22 12:37:47;;;;;;;11.60;8.20;;;;;;;;;;4994473;28;20496;-69
2023/05/22 12:40:32;;;;;;;12.77;7.40;;;;;;;;;;4994688;28;20029;-68
2023/05/22 12:43:17;;;;;;;10.57;8.15;;;;;;;;;;4994782;28;20457;-71
2023/05/22 12:46:02;;;;;;;11.55;7.75;;;;;;;;;;4994843;28;20037;-72
2023/05/22 12:48:47;;;;;;;15.05;7.38;;;;;;;;;;4992655;28;20029;-78
2023/05/22 12:51:33;;;;;;;11.25;8.68;;;;;;;;;;4994952;28;20079;-78
2023/05/22 12:54:18;;;;;;;10.80;7.05;;;;;;;;;;4994579;28;20377;-77
2023/05/22 12:57:03;;;;;;;9.45;7.00;;;;;;;;;;4994431;28;20118;-77
2023/05/22 12:59:49;;;;;;;10.38;6.70;;;;;;;;;;4986838;28;20025;-76
2023/05/22 13:02:34;;;;;;;9.77;7.18;;;;;;;;;;5001085;28;20496;-73
2023/05/22 13:05:20;;;;;;;11.77;7.32;;;;;;;;;;4994698;28;20055;-67
2023/05/22 13:08:05;;;;;;;11.32;7.68;;;;;;;;;;4989615;28;20053;-65
2023/05/22 13:10:50;;;;;;;10.35;7.45;;;;;;;;;;4994791;28;20694;-67
2023/05/22 13:13:35;;;;;;;10.95;7.50;;;;;;;;;;4994021;28;20544;-65
2023/05/22 13:16:21;;;;;;;10.10;7.25;;;;;;;;;;4994578;28;20029;-65
2023/05/22 13:19:06;;;;;;;9.63;7.63;;;;;;;;;;4994624;28;20042;-66
2023/05/22 13:21:51;;;;;;;11.90;7.28;;;;;;;;;;5010520;28;20038;-71
2023/05/22 13:24:36;;;;;;;9.80;7.50;;;;;;;;;;4994459;28;20026;-68
2023/05/22 13:27:22;;;;;;;12.13;7.22;;;;;;;;;;5014741;28;20477;-65
2023/05/22 13:30:07;;;;;;;14.25;6.88;;;;;;;;;;4998931;28;20052;-65
2023/05/22 13:32:52;;;;;;;12.98;8.20;;;;;;;;;;4985117;28;20140;-66
2023/05/22 13:35:38;;;;;;;10.55;7.93;;;;;;;;;;4994598;28;20037;-66
2023/05/22 13:38:23;;;;;;;10.68;7.28;;;;;;;;;;4994693;28;20463;-67
2023/05/22 13:41:08;;;;;;;9.57;7.47;;;;;;;;;;4996466;28;20076;-66
2023/05/22 13:43:53;;;;;;;9.23;7.15;;;;;;;;;;4997811;28;20409;-69
2023/05/22 13:46:39;;;;;;;11.38;7.82;;;;;;;;;;4998363;28;20431;-69
2023/05/22 13:49:24;;;;;;;13.98;8.57;;;;;;;;;;4986468;28;20435;-68
2023/05/22 13:52:09;;;;;;;11.60;7.85;;;;;;;;;;4998071;28;20029;-69
2023/05/22 13:54:54;;;;;;;11.57;7.13;;;;;;;;;;4998047;28;20045;-69
2023/05/22 13:57:40;;;;;;;11.52;7.75;;;;;;;;;;5024876;28;20491;-63
2023/05/22 14:00:25;;;;;;;13.30;7.72;;;;;;;;;;5011321;28;20469;-69
2023/05/22 14:03:16;;;;;;;14.32;7.63;;;;;;;;;;4997802;28;20068;-69
2023/05/22 14:06:01;;;;;;;9.32;6.93;;;;;;;;;;4997742;28;20378;-70
2023/05/22 14:08:46;;;;;;;11.43;7.72;;;;;;;;;;4997522;28;20022;-71
2023/05/22 14:11:31;;;;;;;9.55;7.72;;;;;;;;;;4997174;28;20057;-70
2023/05/22 14:14:22;;;;;;;9.65;7.15;;;;;;;;;;4997502;28;20029;-70
2023/05/22 14:17:08;;;;;;;12.95;7.03;;;;;;;;;;4997554;28;20164;-76
2023/05/22 14:19:53;;;;;;;11.75;7.35;;;;;;;;;;4997315;28;20100;-66
2023/05/22 14:22:38;;;;;;;8.75;6.47;;;;;;;;;;4997556;28;20036;-65
2023/05/22 14:25:24;;;;;;;9.15;6.47;;;;;;;;;;4997038;28;20029;-66
2023/05/22 14:28:11;;;;;;;11.80;6.43;;;;;;;;;;4997811;28;20029;-63
2023/05/22 14:30:56;;;;;;;10.65;6.88;;;;;;;;;;4997548;28;20023;-65
2023/05/22 14:33:41;;;;;;;9.65;6.43;;;;;;;;;;4997554;28;20026;-67
2023/05/22 14:36:26;;;;;;;10.77;7.45;;;;;;;;;;4997538;28;20022;-68
2023/05/22 14:39:11;;;;;;;10.38;6.88;;;;;;;;;;4997219;28;20051;-69
2023/05/22 14:41:57;;;;;;;7.75;6.10;;;;;;;;;;4996820;28;20030;-69
2023/05/22 14:44:42;;;;;;;11.75;8.18;;;;;;;;;;4997080;28;20791;-69
2023/05/22 14:47:27;;;;;;;10.10;6.60;;;;;;;;;;4997083;28;20037;-71
2023/05/22 14:50:12;;;;;;;10.73;6.95;;;;;;;;;;4991332;28;20081;-69
2023/05/22 14:52:58;;;;;;;9.73;5.97;;;;;;;;;;4992552;28;20108;-73
2023/05/22 14:55:43;;;;;;;9.60;6.43;;;;;;;;;;4999801;28;20115;-70
2023/05/22 14:58:28;;;;;;;9.43;6.20;;;;;;;;;;4994012;28;20510;-71
2023/05/22 15:01:13;;;;;;;7.93;5.60;;;;;;;;;;5013869;28;20033;-70
2023/05/22 15:03:59;;;;;;;11.10;5.85;;;;;;;;;;4995342;28;20030;-70
2023/05/22 15:06:44;;;;;;;9.15;5.75;;;;;;;;;;4996536;28;20077;-70
2023/05/22 15:09:31;;;;;;;8.38;5.90;;;;;;;;;;4995961;28;20464;-72
2023/05/22 15:12:16;;;;;;;8.82;5.22;;;;;;;;;;4985825;28;20018;-70
2023/05/22 15:15:01;;;;;;;10.77;5.70;;;;;;;;;;5024005;28;20041;-75
2023/05/22 15:17:47;;;;;;;9.90;6.20;;;;;;;;;;4996502;28;20030;-76
2023/05/22 15:20:33;;;;;;;8.32;5.55;;;;;;;;;;4996666;28;20053;-78
2023/05/22 15:23:19;;;;;;;12.48;6.43;;;;;;;;;;5010724;28;20123;-76
2023/05/22 15:26:05;;;;;;;7.45;5.45;;;;;;;;;;4997138;28;20205;-76
2023/05/22 15:28:50;;;;;;;8.23;5.60;;;;;;;;;;5010304;28;20028;-65
2023/05/22 15:31:36;;;;;;;7.70;5.50;;;;;;;;;;4996387;28;20026;-71
2023/05/22 15:34:21;;;;;;;7.85;5.20;;;;;;;;;;4996615;28;20540;-63
2023/05/22 15:37:06;;;;;;;8.20;5.50;;;;;;;;;;4996296;28;20377;-65
2023/05/22 15:39:51;;;;;;;9.18;6.28;;;;;;;;;;5007669;28;20029;-64
2023/05/22 15:42:37;;;;;;;9.13;5.70;;;;;;;;;;5009179;28;20121;-64
2023/05/22 15:45:22;;;;;;;8.90;6.45;;;;;;;;;;4996281;28;20234;-66
2023/05/22 15:48:07;;;;;;;8.27;5.72;;;;;;;;;;4996027;28;20037;-67
2023/05/22 15:50:52;;;;;;;11.68;6.13;;;;;;;;;;4996301;28;20062;-72
2023/05/22 15:53:38;;;;;;;9.32;6.85;;;;;;;;;;4995918;28;20380;-73
2023/05/22 15:56:23;;;;;;;10.35;6.45;;;;;;;;;;4993237;28;20037;-73
2023/05/22 15:59:08;;;;;;;8.13;5.80;;;;;;;;;;4996128;28;20436;-72
2023/05/22 16:01:54;;;;;;;8.68;5.63;;;;;;;;;;4996021;28;20038;-72
2023/05/22 16:04:39;;;;;;;9.13;5.60;;;;;;;;;;4995742;28;20022;-73
2023/05/22 16:07:24;;;;;;;6.55;4.97;;;;;;;;;;5006301;28;20065;-76
2023/05/22 16:10:10;;;;;;;5.97;4.72;;;;;;;;;;4995049;28;20025;-69
2023/05/22 16:12:55;;;;;;;9.70;5.90;;;;;;;;;;4995916;28;20018;-69
2023/05/22 16:15:41;;;;;;;7.80;5.05;;;;;;;;;;4999573;28;20180;-67
2023/05/22 16:18:27;;;;;;;9.65;5.38;;;;;;;;;;4995620;28;20440;-72
2023/05/22 16:21:12;;;;;;;9.07;5.38;;;;;;;;;;4989374;28;20089;-69
2023/05/22 16:23:57;;;;;;;8.35;5.10;;;;;;;;;;4989498;28;20105;-67